Time;durP1;ratioP1;P1;durP2;ratioP2;P2;SDS_P1;SDS_P2;PMS_P1;PMS_P2;Temp;Humidity;BMP_temperature;BMP_pressure;BME280_temperature;BME280_humidity;BME280_pressure;Samples;Min_cycle;Max_cycle;Signal;HPM_P1;HPM_P2
2022/12/15 00:38:58;;;;;;;11.45;6.43;;;;;;;;;;4763405;30;20405;-79
2022/12/15 00:41:24;;;;;;;13.73;7.13;;;;;;;;;;4766315;30;20040;-79
2022/12/15 00:43:49;;;;;;;14.38;7.22;;;;;;;;;;4751826;30;20502;-79
2022/12/15 00:50:50;;;;;;;11.50;6.80;;;;;;;;;;4768203;30;20042;-79
2022/12/15 01:21:57;;;;;;;11.65;6.55;;;;;;;;;;4770508;30;20601;-79
2022/12/15 01:24:23;;;;;;;11.57;6.07;;;;;;;;;;4766806;30;20122;-79
2022/12/15 01:26:48;;;;;;;15.10;7.50;;;;;;;;;;4750273;30;20054;-79
2022/12/15 01:29:14;;;;;;;14.70;7.25;;;;;;;;;;4761509;30;20478;-79
2022/12/15 01:31:40;;;;;;;13.27;6.38;;;;;;;;;;4764847;30;20054;-79
2022/12/15 01:34:05;;;;;;;12.73;6.22;;;;;;;;;;4749551;30;20043;-80
2022/12/15 01:36:30;;;;;;;13.52;6.97;;;;;;;;;;4747628;30;20036;-79
2022/12/15 01:38:56;;;;;;;12.85;6.65;;;;;;;;;;4745317;30;20027;-78
2022/12/15 01:41:21;;;;;;;14.85;6.93;;;;;;;;;;4746737;30;20155;-79
2022/12/15 01:43:47;;;;;;;15.10;6.45;;;;;;;;;;4743663;30;20135;-79
2022/12/15 01:46:18;;;;;;;11.95;6.70;;;;;;;;;;4762658;30;20036;-79
2022/12/15 01:49:12;;;;;;;10.52;5.65;;;;;;;;;;4745978;30;20032;-78
2022/12/15 01:51:41;;;;;;;14.90;6.75;;;;;;;;;;4760181;30;20040;-79
2022/12/15 01:54:30;;;;;;;12.30;6.32;;;;;;;;;;4765299;30;20512;-78
2022/12/15 01:57:27;;;;;;;13.43;6.75;;;;;;;;;;4756971;30;20034;-79
2022/12/15 01:59:56;;;;;;;13.38;6.53;;;;;;;;;;4763444;30;20032;-79
2022/12/15 02:02:25;;;;;;;12.85;6.75;;;;;;;;;;4765598;30;20507;-79
2022/12/15 02:04:52;;;;;;;15.07;6.55;;;;;;;;;;4746323;30;20035;-79
2022/12/15 02:07:18;;;;;;;11.57;5.82;;;;;;;;;;4767555;30;20071;-78
2022/12/15 02:09:46;;;;;;;14.52;7.13;;;;;;;;;;4751386;30;20071;-78
2022/12/15 02:12:35;;;;;;;10.98;6.38;;;;;;;;;;4766011;30;20059;-79
2022/12/15 02:15:30;;;;;;;12.73;6.93;;;;;;;;;;4762162;30;20035;-79
2022/12/15 02:18:02;;;;;;;11.10;6.40;;;;;;;;;;4759292;30;20070;-78
2022/12/15 02:20:51;;;;;;;13.20;6.30;;;;;;;;;;4769910;30;20047;-79
2022/12/15 02:23:26;;;;;;;12.88;6.95;;;;;;;;;;4748448;30;20042;-78
2022/12/15 02:25:57;;;;;;;13.77;6.93;;;;;;;;;;4751060;30;20093;-78
2022/12/15 02:28:30;;;;;;;13.85;6.72;;;;;;;;;;4750443;30;20063;-79
2022/12/15 02:33:57;;;;;;;14.95;6.57;;;;;;;;;;4765059;30;20179;-79
2022/12/15 02:36:38;;;;;;;11.27;6.60;;;;;;;;;;4742448;30;20031;-79
2022/12/15 02:39:04;;;;;;;14.25;7.57;;;;;;;;;;4746690;30;20040;-80
2022/12/15 02:41:36;;;;;;;13.15;6.63;;;;;;;;;;4761329;30;20507;-79
2022/12/15 02:44:09;;;;;;;12.15;7.00;;;;;;;;;;4757945;30;20641;-79
2022/12/15 02:46:46;;;;;;;12.52;6.80;;;;;;;;;;4750860;30;20092;-79
2022/12/15 02:49:17;;;;;;;11.48;6.13;;;;;;;;;;4756351;30;20036;-78
2022/12/15 02:52:13;;;;;;;13.43;6.65;;;;;;;;;;4761608;30;20028;-78
2022/12/15 02:55:07;;;;;;;13.20;7.07;;;;;;;;;;4745964;30;20051;-79
2022/12/15 02:57:58;;;;;;;14.07;7.20;;;;;;;;;;4685547;30;20426;-79
2022/12/15 03:00:24;;;;;;;15.05;6.22;;;;;;;;;;4758133;30;20050;-79
2022/12/15 03:02:54;;;;;;;15.68;7.35;;;;;;;;;;4763201;30;20059;-78
2022/12/15 03:05:21;;;;;;;13.98;6.85;;;;;;;;;;4759030;30;20486;-79
2022/12/15 03:07:52;;;;;;;14.30;7.10;;;;;;;;;;4745312;30;20044;-79
2022/12/15 03:10:20;;;;;;;13.18;6.28;;;;;;;;;;4762926;30;20043;-78
2022/12/15 03:12:46;;;;;;;14.90;8.07;;;;;;;;;;4743961;30;20536;-78
2022/12/15 03:15:12;;;;;;;13.25;7.10;;;;;;;;;;4745948;30;20036;-79
2022/12/15 03:17:37;;;;;;;16.02;7.22;;;;;;;;;;4749175;30;20118;-79
2022/12/15 03:20:04;;;;;;;12.35;6.13;;;;;;;;;;4747216;30;20399;-78
2022/12/15 03:22:30;;;;;;;13.82;7.13;;;;;;;;;;4760489;30;20118;-78
2022/12/15 03:24:56;;;;;;;15.15;7.45;;;;;;;;;;4746124;30;20034;-78
2022/12/15 03:27:21;;;;;;;16.10;7.80;;;;;;;;;;4746619;30;21045;-78
2022/12/15 03:29:46;;;;;;;11.80;7.05;;;;;;;;;;4765510;30;20027;-78
2022/12/15 03:32:12;;;;;;;15.82;8.10;;;;;;;;;;4747615;30;20072;-79
2022/12/15 03:34:37;;;;;;;16.33;8.55;;;;;;;;;;4762841;30;20032;-78
2022/12/15 03:37:04;;;;;;;14.27;7.28;;;;;;;;;;4764548;30;20036;-78
2022/12/15 03:39:29;;;;;;;15.73;7.78;;;;;;;;;;4762304;30;20039;-78
2022/12/15 03:41:54;;;;;;;13.52;7.05;;;;;;;;;;4760538;30;20032;-80
2022/12/15 03:44:21;;;;;;;13.38;7.10;;;;;;;;;;4745295;30;20031;-79
2022/12/15 03:46:46;;;;;;;14.25;7.95;;;;;;;;;;4741557;30;20039;-78
2022/12/15 03:49:11;;;;;;;15.63;7.63;;;;;;;;;;4762594;30;20031;-79
2022/12/15 03:51:37;;;;;;;16.17;8.65;;;;;;;;;;4754546;30;20561;-78
2022/12/15 03:54:02;;;;;;;17.13;8.55;;;;;;;;;;4765656;30;20027;-79
2022/12/15 03:56:28;;;;;;;15.95;8.20;;;;;;;;;;4767609;30;20028;-79
2022/12/15 03:58:53;;;;;;;15.63;7.65;;;;;;;;;;4762286;30;20040;-78
2022/12/15 04:01:30;;;;;;;16.48;8.25;;;;;;;;;;4751407;30;20121;-79
2022/12/15 04:03:56;;;;;;;17.13;8.23;;;;;;;;;;4768224;30;20077;-78
2022/12/15 04:06:22;;;;;;;15.80;8.00;;;;;;;;;;4753204;30;20036;-78
2022/12/15 04:08:48;;;;;;;14.07;8.45;;;;;;;;;;4774969;30;20048;-78
2022/12/15 04:11:14;;;;;;;13.38;8.40;;;;;;;;;;4750406;30;20482;-78
2022/12/15 04:13:39;;;;;;;15.73;8.75;;;;;;;;;;4770759;30;20032;-78
2022/12/15 04:16:05;;;;;;;16.33;8.10;;;;;;;;;;4773226;30;20031;-78
2022/12/15 04:18:31;;;;;;;17.38;8.00;;;;;;;;;;4758635;30;20047;-78
2022/12/15 04:20:57;;;;;;;16.55;8.23;;;;;;;;;;4771003;30;20637;-78
2022/12/15 04:23:23;;;;;;;14.32;7.57;;;;;;;;;;4764350;30;20068;-79
2022/12/15 05:31:57;;;;;;;17.70;8.77;;;;;;;;;;4763395;30;20513;-79
2022/12/15 05:34:33;;;;;;;16.80;9.57;;;;;;;;;;4748820;30;20038;-79
2022/12/15 05:37:01;;;;;;;15.70;8.63;;;;;;;;;;4758729;30;20093;-79
2022/12/15 05:39:27;;;;;;;18.20;8.60;;;;;;;;;;4764920;30;20038;-79
2022/12/15 05:41:54;;;;;;;15.70;8.45;;;;;;;;;;4759299;30;20114;-79
2022/12/15 05:44:19;;;;;;;18.60;9.55;;;;;;;;;;4762979;30;20036;-79
2022/12/15 05:46:45;;;;;;;18.35;8.80;;;;;;;;;;4764190;30;20047;-79
2022/12/15 05:49:13;;;;;;;18.52;9.55;;;;;;;;;;4761021;30;20496;-79
2022/12/15 05:51:40;;;;;;;14.40;7.72;;;;;;;;;;4762041;30;20034;-79
2022/12/15 05:54:07;;;;;;;22.50;9.68;;;;;;;;;;4759243;30;20032;-79
2022/12/15 05:56:33;;;;;;;20.08;9.43;;;;;;;;;;4745355;30;20444;-80
2022/12/15 05:58:59;;;;;;;17.55;9.50;;;;;;;;;;4761069;30;20036;-79
2022/12/15 06:01:25;;;;;;;16.88;8.50;;;;;;;;;;4762749;30;20040;-79
2022/12/15 06:03:50;;;;;;;18.60;9.38;;;;;;;;;;4750344;30;20504;-80
2022/12/15 06:06:16;;;;;;;19.60;9.27;;;;;;;;;;4743758;30;20043;-79
2022/12/15 06:08:42;;;;;;;15.82;8.43;;;;;;;;;;4759567;30;20050;-79
2022/12/15 06:11:13;;;;;;;18.10;8.73;;;;;;;;;;4740593;30;20028;-79
2022/12/15 06:13:39;;;;;;;19.13;9.45;;;;;;;;;;4748099;30;20032;-79
2022/12/15 06:16:09;;;;;;;12.85;7.97;;;;;;;;;;4758178;30;20366;-79
2022/12/15 06:18:37;;;;;;;19.65;9.88;;;;;;;;;;4763835;30;21932;-79
2022/12/15 06:21:04;;;;;;;15.57;8.57;;;;;;;;;;4745518;30;20044;-79
2022/12/15 06:23:31;;;;;;;18.00;9.00;;;;;;;;;;4745723;30;20065;-79
2022/12/15 06:25:57;;;;;;;18.33;8.98;;;;;;;;;;4752093;30;20046;-79
2022/12/15 06:28:23;;;;;;;20.52;8.80;;;;;;;;;;4760484;30;20035;-79
2022/12/15 06:30:54;;;;;;;17.45;9.30;;;;;;;;;;4758443;30;20047;-79
2022/12/15 06:33:20;;;;;;;15.02;7.97;;;;;;;;;;4763707;30;20024;-79
2022/12/15 06:35:46;;;;;;;15.85;8.82;;;;;;;;;;4751502;30;20024;-79
2022/12/15 06:38:11;;;;;;;17.75;9.15;;;;;;;;;;4749098;30;20511;-79
2022/12/15 06:40:37;;;;;;;16.40;8.82;;;;;;;;;;4769436;30;20093;-79
2022/12/15 06:43:03;;;;;;;16.13;8.75;;;;;;;;;;4770211;30;20046;-79
2022/12/15 06:45:28;;;;;;;19.25;9.65;;;;;;;;;;4765114;30;20035;-78
2022/12/15 06:47:53;;;;;;;15.80;8.15;;;;;;;;;;4752172;30;20058;-79
2022/12/15 06:50:19;;;;;;;17.20;8.70;;;;;;;;;;4770115;30;20031;-79
2022/12/15 06:52:44;;;;;;;16.92;8.45;;;;;;;;;;4766585;30;20455;-79
2022/12/15 06:55:10;;;;;;;15.90;8.27;;;;;;;;;;4752491;30;20040;-79
2022/12/15 06:57:36;;;;;;;18.75;9.18;;;;;;;;;;4748199;30;20038;-79
2022/12/15 07:00:03;;;;;;;17.00;8.55;;;;;;;;;;4750537;30;20066;-79
2022/12/15 07:02:28;;;;;;;17.77;8.02;;;;;;;;;;4766969;30;20028;-79
2022/12/15 07:04:54;;;;;;;18.73;8.60;;;;;;;;;;4754780;30;20081;-80
2022/12/15 07:07:19;;;;;;;19.60;9.32;;;;;;;;;;4745261;30;20039;-78
2022/12/15 07:09:45;;;;;;;16.75;9.27;;;;;;;;;;4765152;30;20054;-78
2022/12/15 07:12:11;;;;;;;17.63;8.60;;;;;;;;;;4768705;30;20032;-79
2022/12/15 07:14:36;;;;;;;14.90;8.85;;;;;;;;;;4770866;30;20089;-78
2022/12/15 07:17:02;;;;;;;23.15;9.20;;;;;;;;;;4769075;30;20512;-78
2022/12/15 07:19:27;;;;;;;21.00;9.65;;;;;;;;;;4778751;30;20114;-78
2022/12/15 07:21:55;;;;;;;16.00;8.98;;;;;;;;;;4755599;30;20083;-78
2022/12/15 07:24:21;;;;;;;14.93;9.15;;;;;;;;;;4757839;30;20031;-78
2022/12/15 07:26:46;;;;;;;19.27;8.52;;;;;;;;;;4769165;30;20398;-79
2022/12/15 07:29:12;;;;;;;18.17;8.90;;;;;;;;;;4777409;30;20047;-78
2022/12/15 07:31:37;;;;;;;17.40;9.45;;;;;;;;;;4758407;30;20031;-78
2022/12/15 07:34:02;;;;;;;18.02;9.18;;;;;;;;;;4751950;30;20036;-78
2022/12/15 07:36:28;;;;;;;18.77;9.75;;;;;;;;;;4772312;30;20066;-78
2022/12/15 07:38:59;;;;;;;21.40;9.48;;;;;;;;;;4756708;30;20032;-78
2022/12/15 07:41:25;;;;;;;18.42;9.45;;;;;;;;;;4750413;30;20080;-79
2022/12/15 07:43:50;;;;;;;15.27;9.07;;;;;;;;;;4775279;30;20091;-79
2022/12/15 07:46:17;;;;;;;17.40;8.57;;;;;;;;;;4753477;30;20194;-78
2022/12/15 07:48:42;;;;;;;18.02;9.80;;;;;;;;;;4767056;30;20426;-78
2022/12/15 07:51:08;;;;;;;17.52;9.02;;;;;;;;;;4770843;30;20162;-78
2022/12/15 07:53:34;;;;;;;19.70;10.35;;;;;;;;;;4756397;30;20042;-79
2022/12/15 07:56:00;;;;;;;17.98;8.77;;;;;;;;;;4768438;30;20034;-79
2022/12/15 07:58:27;;;;;;;19.17;9.68;;;;;;;;;;4765673;30;20379;-78
2022/12/15 08:00:57;;;;;;;15.80;7.90;;;;;;;;;;4766644;30;20035;-78
2022/12/15 08:03:23;;;;;;;15.18;8.95;;;;;;;;;;4756120;30;20632;-78
2022/12/15 08:05:48;;;;;;;18.20;9.80;;;;;;;;;;4767791;30;20169;-78
2022/12/15 08:08:14;;;;;;;19.92;9.77;;;;;;;;;;4777845;30;20393;-78
2022/12/15 08:10:40;;;;;;;17.92;9.93;;;;;;;;;;4771590;30;20393;-78
2022/12/15 08:13:06;;;;;;;18.65;9.93;;;;;;;;;;4754779;30;20042;-79
2022/12/15 08:15:34;;;;;;;22.85;11.18;;;;;;;;;;4753773;30;20416;-79
2022/12/15 08:18:00;;;;;;;20.27;10.98;;;;;;;;;;4751723;30;20035;-79
2022/12/15 08:20:25;;;;;;;16.67;9.85;;;;;;;;;;4768396;30;20049;-80
2022/12/15 08:22:50;;;;;;;20.92;10.52;;;;;;;;;;4754971;30;20095;-79
2022/12/15 08:25:16;;;;;;;21.00;11.18;;;;;;;;;;4769721;30;20040;-79
2022/12/15 08:27:41;;;;;;;16.88;9.80;;;;;;;;;;4753850;30;20046;-79
2022/12/15 08:30:07;;;;;;;18.27;10.30;;;;;;;;;;4757223;30;20046;-79
2022/12/15 08:32:33;;;;;;;20.45;10.63;;;;;;;;;;4758772;30;20121;-78
2022/12/15 08:34:58;;;;;;;19.48;10.43;;;;;;;;;;4758157;30;20119;-79
2022/12/15 08:37:23;;;;;;;21.33;10.40;;;;;;;;;;4755175;30;20032;-79
2022/12/15 08:39:49;;;;;;;19.83;10.55;;;;;;;;;;4760230;30;20473;-79
2022/12/15 08:42:14;;;;;;;24.30;12.07;;;;;;;;;;4762628;30;20042;-79
2022/12/15 08:44:40;;;;;;;23.48;11.90;;;;;;;;;;4751922;30;20070;-79
2022/12/15 08:47:06;;;;;;;20.67;10.65;;;;;;;;;;4755164;30;20118;-79
2022/12/15 08:49:31;;;;;;;22.67;11.23;;;;;;;;;;4784026;30;20038;-78
2022/12/15 08:51:57;;;;;;;18.40;8.85;;;;;;;;;;4764766;30;20035;-79
2022/12/15 08:54:22;;;;;;;16.85;9.85;;;;;;;;;;4769208;30;20027;-79
2022/12/15 08:56:48;;;;;;;24.52;10.77;;;;;;;;;;4767785;30;20055;-79
2022/12/15 08:59:14;;;;;;;18.00;10.18;;;;;;;;;;4758141;30;20039;-79
2022/12/15 09:01:40;;;;;;;24.50;11.45;;;;;;;;;;4769020;30;20424;-79
2022/12/15 09:04:06;;;;;;;19.02;10.15;;;;;;;;;;4765621;30;20036;-79
2022/12/15 09:06:34;;;;;;;22.13;11.15;;;;;;;;;;4770668;30;20556;-79
2022/12/15 09:09:02;;;;;;;18.92;10.32;;;;;;;;;;4752634;30;20436;-79
2022/12/15 09:11:29;;;;;;;20.98;10.82;;;;;;;;;;4778643;30;20032;-79
2022/12/15 09:13:55;;;;;;;21.13;11.43;;;;;;;;;;4773010;30;20042;-79
2022/12/15 09:16:21;;;;;;;21.85;10.93;;;;;;;;;;4771038;30;20470;-79
2022/12/15 09:18:48;;;;;;;22.90;12.18;;;;;;;;;;4769976;30;20028;-79
2022/12/15 09:21:15;;;;;;;20.52;11.88;;;;;;;;;;4774260;30;20497;-79
2022/12/15 09:23:41;;;;;;;23.73;13.10;;;;;;;;;;4755817;30;20524;-79
2022/12/15 09:26:13;;;;;;;24.88;12.95;;;;;;;;;;4756589;30;20031;-79
2022/12/15 09:28:39;;;;;;;23.70;12.52;;;;;;;;;;4747953;30;21512;-80
2022/12/15 09:31:17;;;;;;;22.05;13.38;;;;;;;;;;4752359;30;20555;-79
2022/12/15 09:33:43;;;;;;;23.25;13.00;;;;;;;;;;4762175;30;20062;-79
2022/12/15 09:36:11;;;;;;;22.98;12.13;;;;;;;;;;4752844;30;20055;-79
2022/12/15 09:38:39;;;;;;;23.30;11.68;;;;;;;;;;4767081;30;20416;-79
2022/12/15 09:41:16;;;;;;;20.25;11.73;;;;;;;;;;4762246;30;20088;-79
2022/12/15 09:44:03;;;;;;;27.48;13.85;;;;;;;;;;4753748;30;20050;-79
2022/12/15 09:47:00;;;;;;;22.40;12.52;;;;;;;;;;4762052;30;20039;-79
2022/12/15 09:49:28;;;;;;;21.77;11.55;;;;;;;;;;4725988;30;20040;-79
2022/12/15 09:52:03;;;;;;;27.58;13.35;;;;;;;;;;4756139;30;20046;-79
2022/12/15 09:54:31;;;;;;;20.55;11.05;;;;;;;;;;4752354;30;20043;-79
2022/12/15 09:57:01;;;;;;;22.80;11.57;;;;;;;;;;4773005;30;20102;-79
2022/12/15 09:59:56;;;;;;;23.60;12.23;;;;;;;;;;4752949;30;20446;-79
2022/12/15 10:02:54;;;;;;;21.27;12.38;;;;;;;;;;4758579;30;20028;-79
2022/12/15 10:05:46;;;;;;;23.40;11.70;;;;;;;;;;4728281;30;20047;-79
2022/12/15 10:08:13;;;;;;;27.88;13.45;;;;;;;;;;4776614;30;20040;-79
2022/12/15 10:11:20;;;;;;;27.10;12.43;;;;;;;;;;4760328;30;20054;-80
2022/12/15 10:13:53;;;;;;;20.90;11.63;;;;;;;;;;4764050;30;20080;-80
2022/12/15 10:16:35;;;;;;;24.75;13.25;;;;;;;;;;4770216;30;20027;-79
2022/12/15 10:19:15;;;;;;;24.17;12.43;;;;;;;;;;4745328;30;20634;-79
2022/12/15 10:21:41;;;;;;;22.85;13.25;;;;;;;;;;4751634;30;20059;-79
2022/12/15 10:24:18;;;;;;;21.98;12.93;;;;;;;;;;4752148;30;20039;-79
2022/12/15 10:26:54;;;;;;;22.48;12.50;;;;;;;;;;4764801;30;20047;-79
2022/12/15 10:30:03;;;;;;;24.40;13.23;;;;;;;;;;4751483;30;20393;-79
2022/12/15 10:32:32;;;;;;;23.95;12.20;;;;;;;;;;4754149;30;20126;-79
2022/12/15 10:34:58;;;;;;;27.00;12.40;;;;;;;;;;4752317;30;20078;-80
2022/12/15 10:37:23;;;;;;;28.30;13.73;;;;;;;;;;4764912;30;20055;-80
2022/12/15 10:39:50;;;;;;;22.55;12.38;;;;;;;;;;4765210;30;20071;-79
2022/12/15 10:42:24;;;;;;;22.50;12.73;;;;;;;;;;4753226;30;20035;-79
2022/12/15 10:44:55;;;;;;;22.15;12.38;;;;;;;;;;4768790;30;20114;-80
2022/12/15 10:47:27;;;;;;;24.52;12.80;;;;;;;;;;4760816;30;20035;-79
2022/12/15 10:49:54;;;;;;;25.48;13.73;;;;;;;;;;4769427;30;20405;-79
2022/12/15 10:52:30;;;;;;;24.48;12.40;;;;;;;;;;4769454;30;20502;-79
2022/12/15 10:54:55;;;;;;;25.98;13.50;;;;;;;;;;4771250;30;20074;-80
2022/12/15 10:57:26;;;;;;;24.35;13.10;;;;;;;;;;4758628;30;20059;-79
2022/12/15 10:59:54;;;;;;;26.52;12.93;;;;;;;;;;4755895;30;20501;-80
2022/12/15 11:02:19;;;;;;;27.63;15.10;;;;;;;;;;4764391;30;20059;-79
2022/12/15 11:05:02;;;;;;;23.85;13.38;;;;;;;;;;4757438;30;20075;-80
2022/12/15 11:07:39;;;;;;;26.13;14.10;;;;;;;;;;4763405;30;20042;-79
2022/12/15 11:10:12;;;;;;;23.55;13.20;;;;;;;;;;4774886;30;20042;-79
2022/12/15 11:12:53;;;;;;;24.67;13.98;;;;;;;;;;4764876;30;20122;-79
2022/12/15 11:15:21;;;;;;;24.75;13.35;;;;;;;;;;4771909;30;20039;-79
2022/12/15 11:18:10;;;;;;;28.77;15.07;;;;;;;;;;4763597;30;20044;-80
2022/12/15 11:20:59;;;;;;;23.00;14.00;;;;;;;;;;4756352;30;20032;-80
2022/12/15 11:23:37;;;;;;;31.13;14.20;;;;;;;;;;4754210;30;20267;-79
2022/12/15 11:26:10;;;;;;;24.38;13.70;;;;;;;;;;4771853;30;20055;-79
2022/12/15 11:29:12;;;;;;;23.20;13.30;;;;;;;;;;4756380;30;20447;-79
2022/12/15 11:31:40;;;;;;;22.35;13.23;;;;;;;;;;4760221;30;20047;-79
2022/12/15 11:34:16;;;;;;;26.38;12.40;;;;;;;;;;4771594;30;20062;-80
2022/12/15 11:37:02;;;;;;;28.90;14.90;;;;;;;;;;4767469;30;20420;-79
2022/12/15 11:40:04;;;;;;;24.40;13.90;;;;;;;;;;4760454;30;20032;-79
2022/12/15 11:42:51;;;;;;;25.20;13.90;;;;;;;;;;4765827;30;20083;-79
2022/12/15 11:45:38;;;;;;;21.73;12.27;;;;;;;;;;4768512;30;20123;-79
2022/12/15 11:48:16;;;;;;;21.83;12.57;;;;;;;;;;4771698;30;20051;-79
2022/12/15 11:51:03;;;;;;;25.10;13.18;;;;;;;;;;4770825;30;20050;-79
2022/12/15 11:53:54;;;;;;;21.75;13.23;;;;;;;;;;4757536;30;20618;-79
2022/12/15 11:56:23;;;;;;;23.27;13.13;;;;;;;;;;4769705;30;20061;-79
2022/12/15 11:59:35;;;;;;;24.60;13.50;;;;;;;;;;4754828;30;20448;-79
2022/12/15 12:02:03;;;;;;;23.23;12.30;;;;;;;;;;4767862;30;20036;-79
2022/12/15 12:04:42;;;;;;;26.23;14.23;;;;;;;;;;4763357;30;20030;-78
2022/12/15 12:07:19;;;;;;;23.17;13.63;;;;;;;;;;4773113;30;20494;-78
2022/12/15 12:10:15;;;;;;;24.23;12.68;;;;;;;;;;4769807;30;20031;-77
2022/12/15 12:13:07;;;;;;;28.50;14.10;;;;;;;;;;4774968;30;20039;-78
2022/12/15 12:15:41;;;;;;;23.85;14.52;;;;;;;;;;4765696;30;20036;-78
2022/12/15 12:18:18;;;;;;;28.38;13.38;;;;;;;;;;4751874;30;20134;-78
2022/12/15 12:21:01;;;;;;;26.30;14.15;;;;;;;;;;4755134;30;20060;-78
2022/12/15 12:23:35;;;;;;;27.45;14.52;;;;;;;;;;4771200;30;20039;-78
2022/12/15 12:26:11;;;;;;;23.83;13.95;;;;;;;;;;4768229;30;20521;-78
2022/12/15 12:28:55;;;;;;;28.88;14.80;;;;;;;;;;4754452;30;20055;-78
2022/12/15 12:32:11;;;;;;;26.70;14.10;;;;;;;;;;4766305;30;20058;-78
2022/12/15 12:34:50;;;;;;;28.35;14.80;;;;;;;;;;4710085;30;20041;-78
2022/12/15 12:37:26;;;;;;;28.45;13.68;;;;;;;;;;4776093;30;20050;-78
2022/12/15 12:39:59;;;;;;;27.98;13.20;;;;;;;;;;4751553;30;20508;-78
2022/12/15 12:42:39;;;;;;;27.85;14.13;;;;;;;;;;4768212;30;20055;-78
2022/12/15 12:45:05;;;;;;;21.98;11.95;;;;;;;;;;4770185;30;20489;-78
2022/12/15 12:47:39;;;;;;;28.48;14.45;;;;;;;;;;4773024;30;20035;-78
2022/12/15 12:50:22;;;;;;;24.92;14.15;;;;;;;;;;4753186;30;20521;-78
2022/12/15 12:52:51;;;;;;;29.95;14.00;;;;;;;;;;4754318;30;20439;-78
2022/12/15 12:55:20;;;;;;;24.33;14.35;;;;;;;;;;4752794;30;20088;-78
2022/12/15 12:57:46;;;;;;;24.98;13.95;;;;;;;;;;4755753;30;20489;-78
2022/12/15 13:00:27;;;;;;;23.08;14.27;;;;;;;;;;4767088;30;20042;-78
2022/12/15 13:02:55;;;;;;;28.60;15.55;;;;;;;;;;4771697;30;20061;-78
2022/12/15 13:05:28;;;;;;;24.83;14.98;;;;;;;;;;4764130;30;20040;-78
2022/12/15 13:08:06;;;;;;;25.13;14.45;;;;;;;;;;4762728;30;20039;-78
2022/12/15 13:10:40;;;;;;;22.85;12.25;;;;;;;;;;4762894;30;20066;-78
2022/12/15 13:13:17;;;;;;;23.77;14.52;;;;;;;;;;4766871;30;20035;-78
2022/12/15 13:15:48;;;;;;;23.40;13.32;;;;;;;;;;4772053;30;20093;-78
2022/12/15 13:18:26;;;;;;;24.05;13.32;;;;;;;;;;4769882;30;20508;-78
2022/12/15 13:20:56;;;;;;;27.25;14.90;;;;;;;;;;4764349;30;20075;-78
2022/12/15 13:23:24;;;;;;;22.65;13.77;;;;;;;;;;4767828;30;20063;-78
2022/12/15 13:25:53;;;;;;;27.83;14.38;;;;;;;;;;4754250;30;20043;-77
2022/12/15 13:28:33;;;;;;;23.17;13.68;;;;;;;;;;4754966;30;20405;-78
2022/12/15 13:31:17;;;;;;;27.65;13.85;;;;;;;;;;4748212;30;20134;-79
2022/12/15 13:33:51;;;;;;;28.15;15.00;;;;;;;;;;4768387;30;20039;-78
2022/12/15 13:36:35;;;;;;;28.38;15.15;;;;;;;;;;4763159;30;20032;-78
2022/12/15 13:39:21;;;;;;;29.58;14.38;;;;;;;;;;4765794;30;20499;-78
2022/12/15 13:41:50;;;;;;;23.63;13.82;;;;;;;;;;4751424;30;20035;-78
2022/12/15 13:44:30;;;;;;;25.25;14.35;;;;;;;;;;4767818;30;20027;-78
2022/12/15 13:47:05;;;;;;;25.80;14.23;;;;;;;;;;4752823;30;20044;-78
2022/12/15 13:49:35;;;;;;;27.10;14.32;;;;;;;;;;4766385;30;20030;-78
2022/12/15 13:52:10;;;;;;;27.80;15.77;;;;;;;;;;4754882;30;20031;-78
2022/12/15 13:54:41;;;;;;;27.10;13.60;;;;;;;;;;4749353;30;20481;-77
2022/12/15 13:57:15;;;;;;;28.30;15.45;;;;;;;;;;4755542;30;20035;-78
2022/12/15 13:59:47;;;;;;;26.88;14.05;;;;;;;;;;4749675;30;20509;-78
2022/12/15 14:02:26;;;;;;;27.83;14.35;;;;;;;;;;4747813;30;20489;-78
2022/12/15 14:05:16;;;;;;;25.67;14.32;;;;;;;;;;4764162;30;20093;-77
2022/12/15 14:07:45;;;;;;;29.08;15.40;;;;;;;;;;4762516;30;20533;-78
2022/12/15 14:10:52;;;;;;;25.83;14.55;;;;;;;;;;4757919;30;20076;-77
2022/12/15 14:13:29;;;;;;;26.52;13.75;;;;;;;;;;4756339;30;20509;-78
2022/12/15 14:16:13;;;;;;;25.92;13.98;;;;;;;;;;4748134;30;20028;-78
2022/12/15 14:18:41;;;;;;;23.92;13.88;;;;;;;;;;4766701;30;20028;-79
2022/12/15 14:21:19;;;;;;;22.65;13.73;;;;;;;;;;4768476;30;20171;-77
2022/12/15 14:23:45;;;;;;;23.70;13.45;;;;;;;;;;4754481;30;20401;-77
2022/12/15 14:26:13;;;;;;;25.70;13.00;;;;;;;;;;4767355;30;20028;-77
2022/12/15 14:28:41;;;;;;;26.88;13.98;;;;;;;;;;4770049;30;20410;-78
2022/12/15 14:31:14;;;;;;;25.00;13.63;;;;;;;;;;4746531;30;20505;-77
2022/12/15 14:33:43;;;;;;;29.63;14.43;;;;;;;;;;4766038;30;20494;-78
2022/12/15 14:36:11;;;;;;;28.58;13.90;;;;;;;;;;4773630;30;20033;-77
2022/12/15 14:38:52;;;;;;;25.98;13.65;;;;;;;;;;4759316;30;20078;-77
2022/12/15 14:41:28;;;;;;;29.52;15.52;;;;;;;;;;4772460;30;20031;-77
2022/12/15 14:44:00;;;;;;;22.10;12.93;;;;;;;;;;4762955;30;20048;-77
2022/12/15 14:46:27;;;;;;;24.60;14.48;;;;;;;;;;4771733;30;20101;-77
2022/12/15 14:48:54;;;;;;;24.40;15.10;;;;;;;;;;4768481;30;20134;-78
2022/12/15 14:51:20;;;;;;;24.92;15.13;;;;;;;;;;4753745;30;20039;-78
2022/12/15 14:53:51;;;;;;;25.52;14.98;;;;;;;;;;4766212;30;20048;-78
2022/12/15 14:56:19;;;;;;;26.38;15.18;;;;;;;;;;4776189;30;20027;-78
2022/12/15 14:59:15;;;;;;;24.33;13.48;;;;;;;;;;4767550;30;20404;-78
2022/12/15 15:02:00;;;;;;;23.30;13.27;;;;;;;;;;4768017;30;20031;-78
2022/12/15 15:04:31;;;;;;;25.70;14.18;;;;;;;;;;4766721;30;20051;-78
2022/12/15 15:07:05;;;;;;;30.35;16.15;;;;;;;;;;4764816;30;20150;-79
2022/12/15 15:09:37;;;;;;;29.85;15.88;;;;;;;;;;4748033;30;20044;-78
2022/12/15 15:12:06;;;;;;;32.17;15.82;;;;;;;;;;4766219;30;20048;-78
2022/12/15 15:14:38;;;;;;;28.15;15.38;;;;;;;;;;4743082;30;20074;-79
2022/12/15 15:17:12;;;;;;;26.85;15.18;;;;;;;;;;4757875;30;20524;-78
2022/12/15 15:19:47;;;;;;;28.75;15.65;;;;;;;;;;4767993;30;20036;-78
2022/12/15 15:22:35;;;;;;;34.20;18.70;;;;;;;;;;4762151;30;20052;-78
2022/12/15 15:25:02;;;;;;;29.75;17.42;;;;;;;;;;4751631;30;20100;-77
2022/12/15 15:27:34;;;;;;;31.77;17.85;;;;;;;;;;4756785;30;20051;-78
2022/12/15 15:30:26;;;;;;;30.88;17.17;;;;;;;;;;4750374;30;20039;-78
2022/12/15 15:32:57;;;;;;;25.02;13.75;;;;;;;;;;4748369;30;20054;-78
2022/12/15 15:35:29;;;;;;;27.00;15.35;;;;;;;;;;4761839;30;20028;-78
2022/12/15 15:38:02;;;;;;;26.30;14.82;;;;;;;;;;4751582;30;20038;-78
2022/12/15 15:40:28;;;;;;;27.02;14.55;;;;;;;;;;4770296;30;20501;-78
2022/12/15 15:42:54;;;;;;;25.98;14.57;;;;;;;;;;4771580;30;20032;-78
2022/12/15 15:45:20;;;;;;;26.38;15.43;;;;;;;;;;4753114;30;20028;-79
2022/12/15 15:47:48;;;;;;;23.90;14.13;;;;;;;;;;4755833;30;20506;-78
2022/12/15 15:50:16;;;;;;;24.98;13.75;;;;;;;;;;4769173;30;20398;-77
2022/12/15 15:52:42;;;;;;;23.67;13.52;;;;;;;;;;4769587;30;20039;-78
2022/12/15 15:55:14;;;;;;;25.40;14.70;;;;;;;;;;4757221;30;20547;-78
2022/12/15 15:57:39;;;;;;;22.85;12.63;;;;;;;;;;4755878;30;20023;-78
2022/12/15 16:00:20;;;;;;;26.95;14.93;;;;;;;;;;4744076;30;20036;-78
2022/12/15 16:02:46;;;;;;;27.50;15.60;;;;;;;;;;4752063;30;20490;-78
2022/12/15 16:05:12;;;;;;;23.50;12.82;;;;;;;;;;4760900;30;20035;-77
2022/12/15 16:07:38;;;;;;;24.63;15.20;;;;;;;;;;4769587;30;20576;-77
2022/12/15 16:10:16;;;;;;;24.20;14.23;;;;;;;;;;4755069;30;20150;-77
2022/12/15 16:12:46;;;;;;;23.38;14.60;;;;;;;;;;4751845;30;20489;-77
2022/12/15 16:15:17;;;;;;;24.42;14.55;;;;;;;;;;4762252;30;20409;-77
2022/12/15 16:17:43;;;;;;;26.38;15.13;;;;;;;;;;4768232;30;20582;-78
2022/12/15 16:20:11;;;;;;;26.88;15.07;;;;;;;;;;4756217;30;20114;-77
2022/12/15 16:22:37;;;;;;;28.83;16.65;;;;;;;;;;4749243;30;20513;-76
2022/12/15 16:25:05;;;;;;;29.40;17.45;;;;;;;;;;4767871;30;20032;-76
2022/12/15 16:27:30;;;;;;;28.45;15.73;;;;;;;;;;4770688;30;20477;-78
2022/12/15 16:29:56;;;;;;;28.63;16.65;;;;;;;;;;4770689;30;20035;-77
2022/12/15 16:32:22;;;;;;;29.70;17.95;;;;;;;;;;4767761;30;20376;-78
2022/12/15 16:34:48;;;;;;;30.98;14.88;;;;;;;;;;4773682;30;20038;-77
2022/12/15 16:37:24;;;;;;;33.88;17.02;;;;;;;;;;4772693;30;20027;-78
2022/12/15 16:39:50;;;;;;;23.88;14.48;;;;;;;;;;4750215;30;20040;-78
2022/12/15 16:42:15;;;;;;;31.02;15.70;;;;;;;;;;4767379;30;20028;-77
2022/12/15 16:44:41;;;;;;;27.85;16.20;;;;;;;;;;4764419;30;20023;-79
2022/12/15 16:47:06;;;;;;;25.35;14.52;;;;;;;;;;4752031;30;20107;-78
2022/12/15 16:49:31;;;;;;;29.55;15.68;;;;;;;;;;4768545;30;20444;-78
2022/12/15 16:51:57;;;;;;;28.90;16.52;;;;;;;;;;4769712;30;20042;-77
2022/12/15 16:54:29;;;;;;;30.75;17.38;;;;;;;;;;4765783;30;20039;-78
2022/12/15 16:56:56;;;;;;;31.05;16.85;;;;;;;;;;4768801;30;20035;-77
2022/12/15 16:59:25;;;;;;;24.27;14.80;;;;;;;;;;4767130;30;20473;-77
2022/12/15 17:01:52;;;;;;;26.58;15.70;;;;;;;;;;4766162;30;20789;-77
2022/12/15 17:04:18;;;;;;;31.35;17.75;;;;;;;;;;4764734;30;20108;-77
2022/12/15 17:06:43;;;;;;;28.35;16.35;;;;;;;;;;4759228;30;20051;-78
2022/12/15 17:09:18;;;;;;;31.52;16.65;;;;;;;;;;4764209;30;20047;-78